sensor_id;sensor_type;location;lat;lon;timestamp;pressure;altitude;pressure_sealevel;temperature;humidity
5996;BME280;3026;53.612;7.278;2022-09-13T00:01:02;100770.75;;;18.81;100.00
5996;BME280;3026;53.612;7.278;2022-09-13T00:03:29;100770.75;;;18.81;100.00
5996;BME280;3026;53.612;7.278;2022-09-13T00:05:56;100765.25;;;18.81;100.00
5996;BME280;3026;53.612;7.278;2022-09-13T00:08:25;100770.75;;;18.81;100.00
5996;BME280;3026;53.612;7.278;2022-09-13T00:10:52;100756.34;;;18.79;100.00
5996;BME280;3026;53.612;7.278;2022-09-13T00:13:19;100754.66;;;18.78;100.00
5996;BME280;3026;53.612;7.278;2022-09-13T00:15:47;100748.53;;;18.76;100.00
5996;BME280;3026;53.612;7.278;2022-09-13T00:18:16;100736.84;;;18.74;100.00
5996;BME280;3026;53.612;7.278;2022-09-13T00:20:43;100741.50;;;18.73;100.00
5996;BME280;3026;53.612;7.278;2022-09-13T00:23:10;100731.78;;;18.71;100.00
5996;BME280;3026;53.612;7.278;2022-09-13T00:25:39;100728.41;;;18.69;100.00
5996;BME280;3026;53.612;7.278;2022-09-13T00:28:06;100730.56;;;18.67;100.00
5996;BME280;3026;53.612;7.278;2022-09-13T00:30:33;100729.72;;;18.66;100.00
5996;BME280;3026;53.612;7.278;2022-09-13T00:33:00;100725.44;;;18.63;100.00
5996;BME280;3026;53.612;7.278;2022-09-13T00:35:29;100714.84;;;18.60;100.00
5996;BME280;3026;53.612;7.278;2022-09-13T00:37:58;100714.00;;;18.60;100.00
5996;BME280;3026;53.612;7.278;2022-09-13T00:40:25;100714.25;;;18.58;100.00
5996;BME280;3026;53.612;7.278;2022-09-13T00:42:53;100711.47;;;18.58;100.00
5996;BME280;3026;53.612;7.278;2022-09-13T00:45:20;100709.78;;;18.57;100.00
5996;BME280;3026;53.612;7.278;2022-09-13T00:47:50;100703.44;;;18.57;100.00
5996;BME280;3026;53.612;7.278;2022-09-13T00:50:20;100700.44;;;18.58;100.00
5996;BME280;3026;53.612;7.278;2022-09-13T00:52:52;100697.66;;;18.58;100.00
5996;BME280;3026;53.612;7.278;2022-09-13T00:55:24;100698.28;;;18.60;100.00
5996;BME280;3026;53.612;7.278;2022-09-13T00:57:58;100692.75;;;18.60;100.00
5996;BME280;3026;53.612;7.278;2022-09-13T01:00:28;100685.94;;;18.63;100.00
5996;BME280;3026;53.612;7.278;2022-09-13T01:02:56;100678.47;;;18.63;100.00
5996;BME280;3026;53.612;7.278;2022-09-13T01:05:26;100671.94;;;18.64;100.00
5996;BME280;3026;53.612;7.278;2022-09-13T01:07:55;100674.47;;;18.66;100.00
5996;BME280;3026;53.612;7.278;2022-09-13T01:10:22;100672.56;;;18.67;100.00
5996;BME280;3026;53.612;7.278;2022-09-13T01:12:54;100674.25;;;18.68;100.00
5996;BME280;3026;53.612;7.278;2022-09-13T01:15:22;100670.63;;;18.67;100.00
5996;BME280;3026;53.612;7.278;2022-09-13T01:17:51;100665.97;;;18.68;100.00
5996;BME280;3026;53.612;7.278;2022-09-13T01:20:20;100663.19;;;18.68;100.00
5996;BME280;3026;53.612;7.278;2022-09-13T01:23:22;100667.03;;;18.67;100.00
5996;BME280;3026;53.612;7.278;2022-09-13T01:26:24;100657.06;;;18.65;100.00
5996;BME280;3026;53.612;7.278;2022-09-13T01:29:29;100661.28;;;18.68;100.00
5996;BME280;3026;53.612;7.278;2022-09-13T01:32:06;100661.03;;;18.70;100.00
5996;BME280;3026;53.612;7.278;2022-09-13T01:34:44;100664.66;;;18.70;100.00
5996;BME280;3026;53.612;7.278;2022-09-13T01:37:29;100647.22;;;18.70;100.00
5996;BME280;3026;53.612;7.278;2022-09-13T01:40:15;100651.31;;;18.67;100.00
5996;BME280;3026;53.612;7.278;2022-09-13T01:42:52;100647.69;;;18.67;100.00
5996;BME280;3026;53.612;7.278;2022-09-13T01:45:28;100644.34;;;18.64;100.00
5996;BME280;3026;53.612;7.278;2022-09-13T01:48:03;100639.81;;;18.63;100.00
5996;BME280;3026;53.612;7.278;2022-09-13T01:50:38;100647.25;;;18.63;100.00
5996;BME280;3026;53.612;7.278;2022-09-13T01:53:13;100638.13;;;18.62;100.00
5996;BME280;3026;53.612;7.278;2022-09-13T01:55:45;100646.41;;;18.62;100.00
5996;BME280;3026;53.612;7.278;2022-09-13T01:58:21;100642.59;;;18.63;100.00
5996;BME280;3026;53.612;7.278;2022-09-13T02:00:53;100660.91;;;18.64;100.00
5996;BME280;3026;53.612;7.278;2022-09-13T02:03:26;100659.81;;;18.65;100.00
5996;BME280;3026;53.612;7.278;2022-09-13T02:05:55;100653.22;;;18.67;100.00
5996;BME280;3026;53.612;7.278;2022-09-13T02:08:35;100651.06;;;18.69;100.00
5996;BME280;3026;53.612;7.278;2022-09-13T02:11:07;100652.75;;;18.70;100.00
5996;BME280;3026;53.612;7.278;2022-09-13T02:13:38;100659.97;;;18.71;100.00
5996;BME280;3026;53.612;7.278;2022-09-13T02:16:10;100653.38;;;18.72;100.00
5996;BME280;3026;53.612;7.278;2022-09-13T02:18:42;100654.44;;;18.71;100.00
5996;BME280;3026;53.612;7.278;2022-09-13T02:21:12;100661.03;;;18.70;100.00
5996;BME280;3026;53.612;7.278;2022-09-13T02:23:45;100644.72;;;18.68;100.00
5996;BME280;3026;53.612;7.278;2022-09-13T02:26:14;100645.53;;;18.69;100.00
5996;BME280;3026;53.612;7.278;2022-09-13T02:28:43;100647.69;;;18.67;100.00
5996;BME280;3026;53.612;7.278;2022-09-13T02:31:14;100646.88;;;18.66;100.00
5996;BME280;3026;53.612;7.278;2022-09-13T02:33:48;100653.22;;;18.67;100.00
5996;BME280;3026;53.612;7.278;2022-09-13T02:36:22;100652.16;;;18.68;100.00
5996;BME280;3026;53.612;7.278;2022-09-13T02:38:52;100649.38;;;18.68;100.00
5996;BME280;3026;53.612;7.278;2022-09-13T02:41:24;100648.06;;;18.70;100.00
5996;BME280;3026;53.612;7.278;2022-09-13T02:43:59;100639.56;;;18.72;100.00
5996;BME280;3026;53.612;7.278;2022-09-13T02:46:43;100650.59;;;18.72;100.00
5996;BME280;3026;53.612;7.278;2022-09-13T02:49:22;100653.97;;;18.74;100.00
5996;BME280;3026;53.612;7.278;2022-09-13T02:51:54;100653.97;;;18.74;100.00
5996;BME280;3026;53.612;7.278;2022-09-13T02:54:26;100649.28;;;18.74;100.00
5996;BME280;3026;53.612;7.278;2022-09-13T02:56:59;100661.19;;;18.75;100.00
5996;BME280;3026;53.612;7.278;2022-09-13T02:59:30;100645.69;;;18.74;100.00
5996;BME280;3026;53.612;7.278;2022-09-13T03:02:00;100653.53;;;18.77;100.00
5996;BME280;3026;53.612;7.278;2022-09-13T03:04:31;100648.00;;;18.77;100.00
5996;BME280;3026;53.612;7.278;2022-09-13T03:06:59;100655.22;;;18.78;100.00
5996;BME280;3026;53.612;7.278;2022-09-13T03:09:26;100649.47;;;18.79;100.00
5996;BME280;3026;53.612;7.278;2022-09-13T03:12:22;100654.13;;;18.79;100.00
5996;BME280;3026;53.612;7.278;2022-09-13T03:14:58;100651.84;;;18.76;100.00
5996;BME280;3026;53.612;7.278;2022-09-13T03:17:38;100650.97;;;18.75;100.00
5996;BME280;3026;53.612;7.278;2022-09-13T03:20:12;100648.44;;;18.74;100.00
5996;BME280;3026;53.612;7.278;2022-09-13T03:23:01;100654.91;;;18.68;100.00
5996;BME280;3026;53.612;7.278;2022-09-13T03:25:46;100651.94;;;18.62;100.00
5996;BME280;3026;53.612;7.278;2022-09-13T03:28:23;100650.25;;;18.61;100.00
5996;BME280;3026;53.612;7.278;2022-09-13T03:30:56;100657.94;;;18.59;100.00
5996;BME280;3026;53.612;7.278;2022-09-13T03:33:30;100652.41;;;18.59;100.00
5996;BME280;3026;53.612;7.278;2022-09-13T03:36:07;100657.94;;;18.59;100.00
5996;BME280;3026;53.612;7.278;2022-09-13T03:38:41;100652.41;;;18.59;100.00
5996;BME280;3026;53.612;7.278;2022-09-13T03:41:12;100659.63;;;18.60;100.00
5996;BME280;3026;53.612;7.278;2022-09-13T03:43:43;100659.63;;;18.60;100.00
5996;BME280;3026;53.612;7.278;2022-09-13T03:46:16;100664.53;;;18.58;100.00
5996;BME280;3026;53.612;7.278;2022-09-13T03:48:45;100661.78;;;18.58;100.00
5996;BME280;3026;53.612;7.278;2022-09-13T03:51:14;100656.25;;;18.58;100.00
5996;BME280;3026;53.612;7.278;2022-09-13T03:53:46;100652.88;;;18.56;100.00
5996;BME280;3026;53.612;7.278;2022-09-13T03:56:15;100656.72;;;18.55;100.00
5996;BME280;3026;53.612;7.278;2022-09-13T03:58:42;100652.88;;;18.56;100.00
5996;BME280;3026;53.612;7.278;2022-09-13T04:01:09;100656.72;;;18.55;100.00
5996;BME280;3026;53.612;7.278;2022-09-13T04:03:37;100655.03;;;18.54;100.00
5996;BME280;3026;53.612;7.278;2022-09-13T04:06:04;100659.72;;;18.54;100.00
5996;BME280;3026;53.612;7.278;2022-09-13T04:08:33;100657.78;;;18.54;100.00
5996;BME280;3026;53.612;7.278;2022-09-13T04:10:59;100665.25;;;18.54;100.00
5996;BME280;3026;53.612;7.278;2022-09-13T04:13:26;100664.41;;;18.53;100.00
5996;BME280;3026;53.612;7.278;2022-09-13T04:15:53;100664.41;;;18.53;100.00
5996;BME280;3026;53.612;7.278;2022-09-13T04:18:21;100667.34;;;18.52;100.00
5996;BME280;3026;53.612;7.278;2022-09-13T04:20:53;100672.88;;;18.52;100.00
5996;BME280;3026;53.612;7.278;2022-09-13T04:23:20;100673.09;;;18.50;100.00
5996;BME280;3026;53.612;7.278;2022-09-13T04:25:48;100676.94;;;18.49;100.00
5996;BME280;3026;53.612;7.278;2022-09-13T04:28:16;100675.25;;;18.48;100.00
5996;BME280;3026;53.612;7.278;2022-09-13T04:30:43;100680.19;;;18.46;100.00
5996;BME280;3026;53.612;7.278;2022-09-13T04:33:10;100680.63;;;18.43;100.00
5996;BME280;3026;53.612;7.278;2022-09-13T04:35:37;100673.44;;;18.42;100.00
5996;BME280;3026;53.612;7.278;2022-09-13T04:38:06;100675.56;;;18.40;100.00
5996;BME280;3026;53.612;7.278;2022-09-13T04:40:33;100679.38;;;18.39;100.00
5996;BME280;3026;53.612;7.278;2022-09-13T04:43:03;100680.94;;;18.35;100.00
5996;BME280;3026;53.612;7.278;2022-09-13T04:45:30;100676.94;;;18.31;100.00
5996;BME280;3026;53.612;7.278;2022-09-13T04:47:56;100683.53;;;18.30;100.00
5996;BME280;3026;53.612;7.278;2022-09-13T04:50:24;100678.22;;;18.28;100.00
5996;BME280;3026;53.612;7.278;2022-09-13T04:52:53;100682.88;;;18.28;100.00
5996;BME280;3026;53.612;7.278;2022-09-13T04:55:20;100684.19;;;18.25;100.00
5996;BME280;3026;53.612;7.278;2022-09-13T04:57:53;100691.88;;;18.23;100.00
5996;BME280;3026;53.612;7.278;2022-09-13T05:00:22;100688.94;;;18.18;100.00
5996;BME280;3026;53.612;7.278;2022-09-13T05:02:53;100689.16;;;18.17;100.00
5996;BME280;3026;53.612;7.278;2022-09-13T05:05:20;100690.22;;;18.16;100.00
5996;BME280;3026;53.612;7.278;2022-09-13T05:07:48;100701.72;;;18.13;100.00
5996;BME280;3026;53.612;7.278;2022-09-13T05:10:15;100700.03;;;18.12;100.00
5996;BME280;3026;53.612;7.278;2022-09-13T05:12:42;100698.34;;;18.11;100.00
5996;BME280;3026;53.612;7.278;2022-09-13T05:15:10;100698.34;;;18.11;100.00
5996;BME280;3026;53.612;7.278;2022-09-13T05:17:38;100705.16;;;18.08;100.00
5996;BME280;3026;53.612;7.278;2022-09-13T05:20:05;100710.91;;;18.06;100.00
5996;BME280;3026;53.612;7.278;2022-09-13T05:22:32;100709.19;;;18.05;100.00
5996;BME280;3026;53.612;7.278;2022-09-13T05:24:59;100704.75;;;18.04;100.00
5996;BME280;3026;53.612;7.278;2022-09-13T05:27:26;100711.56;;;18.02;100.00
5996;BME280;3026;53.612;7.278;2022-09-13T05:29:53;100709.50;;;17.97;100.00
5996;BME280;3026;53.612;7.278;2022-09-13T05:32:19;100703.19;;;17.90;100.00
5996;BME280;3026;53.612;7.278;2022-09-13T05:34:48;100708.53;;;17.85;100.00
5996;BME280;3026;53.612;7.278;2022-09-13T05:37:15;100710.03;;;17.81;100.00
5996;BME280;3026;53.612;7.278;2022-09-13T05:39:42;100714.31;;;17.77;100.00
5996;BME280;3026;53.612;7.278;2022-09-13T05:42:09;100713.09;;;17.73;100.00
5996;BME280;3026;53.612;7.278;2022-09-13T05:44:36;100708.00;;;17.70;100.00
5996;BME280;3026;53.612;7.278;2022-09-13T05:47:03;100712.22;;;17.66;100.00
5996;BME280;3026;53.612;7.278;2022-09-13T05:49:30;100709.31;;;17.61;100.00
5996;BME280;3026;53.612;7.278;2022-09-13T05:51:58;100716.94;;;17.59;100.00
5996;BME280;3026;53.612;7.278;2022-09-13T05:54:25;100717.38;;;17.56;100.00
5996;BME280;3026;53.612;7.278;2022-09-13T05:56:52;100720.38;;;17.54;100.00
5996;BME280;3026;53.612;7.278;2022-09-13T05:59:22;100719.53;;;17.54;100.00
5996;BME280;3026;53.612;7.278;2022-09-13T06:01:49;100725.66;;;17.56;100.00
5996;BME280;3026;53.612;7.278;2022-09-13T06:04:15;100722.97;;;17.49;100.00
5996;BME280;3026;53.612;7.278;2022-09-13T06:06:42;100724.66;;;17.43;100.00
5996;BME280;3026;53.612;7.278;2022-09-13T06:09:11;100731.69;;;17.39;100.00
5996;BME280;3026;53.612;7.278;2022-09-13T06:11:38;100727.91;;;17.34;100.00
5996;BME280;3026;53.612;7.278;2022-09-13T06:14:05;100733.63;;;17.32;100.00
5996;BME280;3026;53.612;7.278;2022-09-13T06:16:32;100730.88;;;17.32;100.00
5996;BME280;3026;53.612;7.278;2022-09-13T06:18:58;100730.69;;;17.27;100.00
5996;BME280;3026;53.612;7.278;2022-09-13T06:21:25;100742.97;;;17.25;100.00
5996;BME280;3026;53.612;7.278;2022-09-13T06:23:52;100734.94;;;17.23;100.00
5996;BME280;3026;53.612;7.278;2022-09-13T06:26:22;100737.69;;;17.23;100.00
5996;BME280;3026;53.612;7.278;2022-09-13T06:28:51;100734.94;;;17.23;100.00
5996;BME280;3026;53.612;7.278;2022-09-13T06:31:19;100738.75;;;17.22;100.00
5996;BME280;3026;53.612;7.278;2022-09-13T06:33:46;100738.75;;;17.22;100.00
5996;BME280;3026;53.612;7.278;2022-09-13T06:36:15;100741.28;;;17.24;100.00
5996;BME280;3026;53.612;7.278;2022-09-13T06:38:44;100743.84;;;17.25;100.00
5996;BME280;3026;53.612;7.278;2022-09-13T06:41:13;100741.72;;;17.27;100.00
5996;BME280;3026;53.612;7.278;2022-09-13T06:43:42;100739.59;;;17.29;100.00
5996;BME280;3026;53.612;7.278;2022-09-13T06:46:10;100735.75;;;17.30;100.00
5996;BME280;3026;53.612;7.278;2022-09-13T06:48:38;100737.44;;;17.31;100.00
5996;BME280;3026;53.612;7.278;2022-09-13T06:51:08;100748.91;;;17.28;100.00
5996;BME280;3026;53.612;7.278;2022-09-13T06:53:36;100738.75;;;17.29;100.00
5996;BME280;3026;53.612;7.278;2022-09-13T06:56:06;100740.84;;;17.33;100.00
5996;BME280;3026;53.612;7.278;2022-09-13T06:58:34;100748.66;;;17.36;100.00
5996;BME280;3026;53.612;7.278;2022-09-13T07:01:11;100746.97;;;17.35;100.00
5996;BME280;3026;53.612;7.278;2022-09-13T07:03:40;100750.38;;;17.37;100.00
5996;BME280;3026;53.612;7.278;2022-09-13T07:06:08;100748.84;;;17.41;100.00
5996;BME280;3026;53.612;7.278;2022-09-13T07:08:35;100747.78;;;17.42;100.00
5996;BME280;3026;53.612;7.278;2022-09-13T07:11:02;100753.91;;;17.44;100.00
5996;BME280;3026;53.612;7.278;2022-09-13T07:13:30;100751.38;;;17.49;100.00
5996;BME280;3026;53.612;7.278;2022-09-13T07:16:01;100760.44;;;17.57;100.00
5996;BME280;3026;53.612;7.278;2022-09-13T07:18:29;100760.19;;;17.65;100.00
5996;BME280;3026;53.612;7.278;2022-09-13T07:21:00;100762.47;;;17.68;100.00
5996;BME280;3026;53.612;7.278;2022-09-13T07:23:29;100751.69;;;17.66;100.00
5996;BME280;3026;53.612;7.278;2022-09-13T07:25:56;100765.69;;;17.71;100.00
5996;BME280;3026;53.612;7.278;2022-09-13T07:28:27;100759.50;;;17.76;100.00
5996;BME280;3026;53.612;7.278;2022-09-13T07:30:55;100764.78;;;17.77;100.00
5996;BME280;3026;53.612;7.278;2022-09-13T07:33:24;100763.97;;;17.77;100.00
5996;BME280;3026;53.612;7.278;2022-09-13T07:35:55;100769.84;;;17.81;100.00
5996;BME280;3026;53.612;7.278;2022-09-13T07:38:24;100771.34;;;17.83;100.00
5996;BME280;3026;53.612;7.278;2022-09-13T07:40:54;100771.97;;;17.85;100.00
5996;BME280;3026;53.612;7.278;2022-09-13T07:43:22;100782.09;;;17.91;100.00
5996;BME280;3026;53.612;7.278;2022-09-13T07:45:55;100781.66;;;17.94;100.00
5996;BME280;3026;53.612;7.278;2022-09-13T07:48:23;100777.41;;;17.98;100.00
5996;BME280;3026;53.612;7.278;2022-09-13T07:50:57;100786.28;;;18.00;100.00
5996;BME280;3026;53.612;7.278;2022-09-13T07:53:24;100784.56;;;18.06;100.00
5996;BME280;3026;53.612;7.278;2022-09-13T07:55:52;100791.72;;;18.14;100.00
5996;BME280;3026;53.612;7.278;2022-09-13T07:58:20;100800.97;;;18.26;100.00
5996;BME280;3026;53.612;7.278;2022-09-13T08:00:47;100790.25;;;18.36;100.00
5996;BME280;3026;53.612;7.278;2022-09-13T08:03:14;100796.75;;;18.48;100.00
5996;BME280;3026;53.612;7.278;2022-09-13T08:05:41;100798.63;;;18.54;100.00
5996;BME280;3026;53.612;7.278;2022-09-13T08:08:09;100802.84;;;18.57;100.00
5996;BME280;3026;53.612;7.278;2022-09-13T08:10:36;100803.69;;;18.57;100.00
5996;BME280;3026;53.612;7.278;2022-09-13T08:13:03;100813.25;;;18.55;100.00
5996;BME280;3026;53.612;7.278;2022-09-13T08:15:29;100800.00;;;18.63;100.00
5996;BME280;3026;53.612;7.278;2022-09-13T08:17:56;100818.94;;;18.67;100.00
5996;BME280;3026;53.612;7.278;2022-09-13T08:20:23;100818.94;;;18.67;100.00
5996;BME280;3026;53.612;7.278;2022-09-13T08:22:49;100822.22;;;18.75;100.00
5996;BME280;3026;53.612;7.278;2022-09-13T08:25:18;100820.03;;;18.84;100.00
5996;BME280;3026;53.612;7.278;2022-09-13T08:27:45;100822.50;;;18.92;100.00
5996;BME280;3026;53.612;7.278;2022-09-13T08:30:12;100821.13;;;19.01;100.00
5996;BME280;3026;53.612;7.278;2022-09-13T08:32:39;100818.97;;;19.03;100.00
5996;BME280;3026;53.612;7.278;2022-09-13T08:35:06;100827.75;;;19.18;100.00
5996;BME280;3026;53.612;7.278;2022-09-13T08:37:33;100834.28;;;19.24;100.00
5996;BME280;3026;53.612;7.278;2022-09-13T08:40:00;100839.56;;;19.26;100.00
5996;BME280;3026;53.612;7.278;2022-09-13T08:42:46;100841.31;;;19.20;100.00
5996;BME280;3026;53.612;7.278;2022-09-13T08:45:17;100848.41;;;19.16;100.00
5996;BME280;3026;53.612;7.278;2022-09-13T08:47:48;100840.16;;;19.09;100.00
5996;BME280;3026;53.612;7.278;2022-09-13T08:50:20;100849.09;;;19.11;100.00
5996;BME280;3026;53.612;7.278;2022-09-13T08:53:04;100849.09;;;19.11;100.00
5996;BME280;3026;53.612;7.278;2022-09-13T08:55:43;100848.63;;;19.14;100.00
5996;BME280;3026;53.612;7.278;2022-09-13T08:58:32;100850.25;;;19.22;100.00
5996;BME280;3026;53.612;7.278;2022-09-13T09:01:05;100856.00;;;19.39;100.00
5996;BME280;3026;53.612;7.278;2022-09-13T09:03:40;100856.66;;;19.59;100.00
5996;BME280;3026;53.612;7.278;2022-09-13T09:06:12;100864.47;;;19.80;100.00
5996;BME280;3026;53.612;7.278;2022-09-13T09:08:45;100864.47;;;19.80;100.00
5996;BME280;3026;53.612;7.278;2022-09-13T09:11:26;100867.06;;;19.75;100.00
5996;BME280;3026;53.612;7.278;2022-09-13T09:14:02;100866.16;;;19.81;100.00
5996;BME280;3026;53.612;7.278;2022-09-13T09:16:36;100864.28;;;19.94;100.00
5996;BME280;3026;53.612;7.278;2022-09-13T09:19:13;100874.88;;;19.97;100.00
5996;BME280;3026;53.612;7.278;2022-09-13T09:21:44;100868.50;;;19.96;100.00
5996;BME280;3026;53.612;7.278;2022-09-13T09:24:18;100864.59;;;20.04;100.00
5996;BME280;3026;53.612;7.278;2022-09-13T09:26:45;100861.47;;;20.12;100.00
5996;BME280;3026;53.612;7.278;2022-09-13T09:29:17;100855.31;;;20.10;100.00
5996;BME280;3026;53.612;7.278;2022-09-13T09:31:53;100857.63;;;20.13;100.00
5996;BME280;3026;53.612;7.278;2022-09-13T09:34:32;100865.78;;;20.08;100.00
5996;BME280;3026;53.612;7.278;2022-09-13T09:37:11;100875.38;;;19.94;100.00
5996;BME280;3026;53.612;7.278;2022-09-13T09:39:41;100871.03;;;19.98;100.00
5996;BME280;3026;53.612;7.278;2022-09-13T09:42:12;100872.88;;;20.04;100.00
5996;BME280;3026;53.612;7.278;2022-09-13T09:44:47;100868.88;;;20.00;100.00
5996;BME280;3026;53.612;7.278;2022-09-13T09:47:17;100866.06;;;20.18;100.00
5996;BME280;3026;53.612;7.278;2022-09-13T09:49:46;100866.47;;;20.33;100.00
5996;BME280;3026;53.612;7.278;2022-09-13T09:52:37;100861.53;;;20.35;100.00
5996;BME280;3026;53.612;7.278;2022-09-13T09:55:20;100862.31;;;20.43;100.00
5996;BME280;3026;53.612;7.278;2022-09-13T09:57:50;100869.66;;;20.49;100.00
5996;BME280;3026;53.612;7.278;2022-09-13T10:00:21;100872.59;;;20.54;100.00
5996;BME280;3026;53.612;7.278;2022-09-13T10:02:50;100869.91;;;20.47;100.00
5996;BME280;3026;53.612;7.278;2022-09-13T10:05:19;100874.16;;;20.50;100.00
5996;BME280;3026;53.612;7.278;2022-09-13T10:07:52;100871.50;;;20.55;100.00
5996;BME280;3026;53.612;7.278;2022-09-13T10:10:24;100878.50;;;20.69;100.00
5996;BME280;3026;53.612;7.278;2022-09-13T10:12:53;100875.88;;;20.74;100.00
5996;BME280;3026;53.612;7.278;2022-09-13T10:15:25;100869.84;;;20.77;100.00
5996;BME280;3026;53.612;7.278;2022-09-13T10:18:02;100866.00;;;20.78;100.00
5996;BME280;3026;53.612;7.278;2022-09-13T10:20:33;100868.88;;;20.83;100.00
5996;BME280;3026;53.612;7.278;2022-09-13T10:23:19;100874.06;;;20.91;100.00
5996;BME280;3026;53.612;7.278;2022-09-13T10:26:05;100873.00;;;20.92;100.00
5996;BME280;3026;53.612;7.278;2022-09-13T10:28:35;100869.97;;;20.94;100.00
5996;BME280;3026;53.612;7.278;2022-09-13T10:31:09;100876.84;;;20.91;100.00
5996;BME280;3026;53.612;7.278;2022-09-13T10:33:40;100874.56;;;20.88;100.00
5996;BME280;3026;53.612;7.278;2022-09-13T10:36:13;100870.59;;;20.84;100.00
5996;BME280;3026;53.612;7.278;2022-09-13T10:38:45;100863.81;;;20.80;100.00
5996;BME280;3026;53.612;7.278;2022-09-13T10:41:20;100869.38;;;20.80;100.00
5996;BME280;3026;53.612;7.278;2022-09-13T10:43:55;100868.78;;;20.90;100.00
5996;BME280;3026;53.612;7.278;2022-09-13T10:46:24;100865.91;;;20.96;100.00
5996;BME280;3026;53.612;7.278;2022-09-13T10:48:52;100875.31;;;21.07;100.00
5996;BME280;3026;53.612;7.278;2022-09-13T10:51:31;100877.84;;;21.09;100.00
5996;BME280;3026;53.612;7.278;2022-09-13T10:54:17;100877.22;;;21.18;100.00
5996;BME280;3026;53.612;7.278;2022-09-13T10:56:44;100870.34;;;21.21;100.00
5996;BME280;3026;53.612;7.278;2022-09-13T10:59:20;100872.28;;;21.09;100.00
5996;BME280;3026;53.612;7.278;2022-09-13T11:04:57;100879.13;;;20.94;100.00
5996;BME280;3026;53.612;7.278;2022-09-13T11:10:22;100876.75;;;21.10;100.00
5996;BME280;3026;53.612;7.278;2022-09-13T11:12:58;100882.03;;;21.11;100.00
5996;BME280;3026;53.612;7.278;2022-09-13T11:15:36;100877.09;;;21.02;100.00
5996;BME280;3026;53.612;7.278;2022-09-13T11:18:26;100882.88;;;20.88;100.00
5996;BME280;3026;53.612;7.278;2022-09-13T11:21:08;100878.09;;;20.95;100.00
5996;BME280;3026;53.612;7.278;2022-09-13T11:23:52;100889.16;;;21.07;100.00
5996;BME280;3026;53.612;7.278;2022-09-13T11:26:35;100885.66;;;21.12;100.00
5996;BME280;3026;53.612;7.278;2022-09-13T11:29:16;100887.84;;;21.10;100.00
5996;BME280;3026;53.612;7.278;2022-09-13T11:31:50;100884.31;;;21.03;100.00
5996;BME280;3026;53.612;7.278;2022-09-13T11:34:31;100876.16;;;21.08;100.00
5996;BME280;3026;53.612;7.278;2022-09-13T11:37:26;100888.69;;;20.98;100.00
5996;BME280;3026;53.612;7.278;2022-09-13T11:40:09;100889.50;;;20.87;100.00
5996;BME280;3026;53.612;7.278;2022-09-13T11:42:47;100885.75;;;20.82;100.00
5996;BME280;3026;53.612;7.278;2022-09-13T11:45:21;100886.47;;;20.77;100.00
5996;BME280;3026;53.612;7.278;2022-09-13T11:48:00;100889.97;;;20.73;100.00
5996;BME280;3026;53.612;7.278;2022-09-13T11:50:34;100895.88;;;20.76;100.00
5996;BME280;3026;53.612;7.278;2022-09-13T11:53:19;100890.81;;;20.73;100.00
5996;BME280;3026;53.612;7.278;2022-09-13T11:55:53;100899.13;;;20.73;100.00
5996;BME280;3026;53.612;7.278;2022-09-13T11:58:25;100901.06;;;20.73;100.00
5996;BME280;3026;53.612;7.278;2022-09-13T12:00:58;100907.91;;;20.70;100.00
5996;BME280;3026;53.612;7.278;2022-09-13T12:03:30;100908.38;;;20.67;100.00
5996;BME280;3026;53.612;7.278;2022-09-13T12:06:04;100899.00;;;20.68;100.00
5996;BME280;3026;53.612;7.278;2022-09-13T12:08:35;100908.75;;;20.71;100.00
5996;BME280;3026;53.612;7.278;2022-09-13T12:11:07;100911.03;;;20.62;100.00
5996;BME280;3026;53.612;7.278;2022-09-13T12:13:40;100915.06;;;20.48;100.00
5996;BME280;3026;53.612;7.278;2022-09-13T12:16:10;100915.53;;;20.45;100.00
5996;BME280;3026;53.612;7.278;2022-09-13T12:18:41;100913.88;;;20.44;100.00
5996;BME280;3026;53.612;7.278;2022-09-13T12:21:13;100912.94;;;20.50;100.00
5996;BME280;3026;53.612;7.278;2022-09-13T12:23:49;100914.13;;;20.54;100.00
5996;BME280;3026;53.612;7.278;2022-09-13T12:26:20;100910.66;;;20.58;100.00
5996;BME280;3026;53.612;7.278;2022-09-13T12:28:51;100914.13;;;20.54;100.00
5996;BME280;3026;53.612;7.278;2022-09-13T12:31:22;100912.94;;;20.50;100.00
5996;BME280;3026;53.612;7.278;2022-09-13T12:33:50;100917.84;;;20.48;100.00
5996;BME280;3026;53.612;7.278;2022-09-13T12:36:53;100916.00;;;20.42;100.00
5996;BME280;3026;53.612;7.278;2022-09-13T12:39:43;100919.69;;;20.35;100.00
5996;BME280;3026;53.612;7.278;2022-09-13T12:42:39;100924.81;;;20.20;100.00
5996;BME280;3026;53.612;7.278;2022-09-13T12:45:27;100925.72;;;20.14;100.00
5996;BME280;3026;53.612;7.278;2022-09-13T12:48:18;100933.06;;;20.08;100.00
5996;BME280;3026;53.612;7.278;2022-09-13T12:51:11;100931.75;;;20.11;100.00
5996;BME280;3026;53.612;7.278;2022-09-13T12:54:04;100921.16;;;20.08;100.00
5996;BME280;3026;53.612;7.278;2022-09-13T12:56:45;100928.38;;;20.09;100.00
5996;BME280;3026;53.612;7.278;2022-09-13T12:59:27;100927.16;;;20.05;100.00
5996;BME280;3026;53.612;7.278;2022-09-13T13:02:01;100914.41;;;20.04;100.00
5996;BME280;3026;53.612;7.278;2022-09-13T13:04:31;100909.47;;;20.06;100.00
5996;BME280;3026;53.612;7.278;2022-09-13T13:07:01;100923.59;;;20.16;100.00
5996;BME280;3026;53.612;7.278;2022-09-13T13:09:35;100916.63;;;20.25;100.00
5996;BME280;3026;53.612;7.278;2022-09-13T13:12:05;100923.41;;;20.29;100.00
5996;BME280;3026;53.612;7.278;2022-09-13T13:14:48;100912.81;;;20.26;100.00
5996;BME280;3026;53.612;7.278;2022-09-13T13:17:41;100916.50;;;20.20;100.00
5996;BME280;3026;53.612;7.278;2022-09-13T13:21:02;100919.28;;;20.20;100.00
5996;BME280;3026;53.612;7.278;2022-09-13T13:23:31;100914.94;;;20.24;100.00
5996;BME280;3026;53.612;7.278;2022-09-13T13:26:11;100911.09;;;20.25;100.00
5996;BME280;3026;53.612;7.278;2022-09-13T13:31:43;100904.50;;;20.26;100.00
5996;BME280;3026;53.612;7.278;2022-09-13T13:34:32;100900.03;;;20.25;100.00
5996;BME280;3026;53.612;7.278;2022-09-13T13:37:01;100898.34;;;20.24;100.00